Terminal Aerodrome Forecast
Issued by NWS Binghamton, NY

Home | Current Version | Previous Version | Text Only | Print | Product List | Glossary On
Versions: 1 2 3 4 5 6 7 8 9 10 11 12 13 14 15 16 17 18 19
000
FTUS41 KBGM 221726
TAFBGM
TAF
KBGM 221726Z 2218/2318 VRB03KT P6SM OVC200
     FM230300 03006KT P6SM OVC050
     FM230900 05004KT P6SM OVC025
     FM231500 10005KT P6SM BKN035 OVC060=

USA.gov is the U.S. government's official web portal to all federal, state and local government web resources and services.